Time;durP1;ratioP1;P1;durP2;ratioP2;P2;SDS_P1;SDS_P2;PMS_P1;PMS_P2;Temp;Humidity;BMP_temperature;BMP_pressure;BME280_temperature;BME280_humidity;BME280_pressure;Samples;Min_cycle;Max_cycle;Signal;HPM_P1;HPM_P2
2022/05/23 00:03:00;;;;;;;6.70;3.40;;;;;;;6.73;71.09;99293.17;433055;1272;145531;-61
2022/05/23 00:13:07;;;;;;;3.40;3.10;;;;;;;6.43;71.71;99298.23;435025;1273;144932;-62
2022/05/23 00:23:12;;;;;;;3.70;3.00;;;;;;;6.16;72.32;99297.30;436860;1273;142190;-62
2022/05/23 00:43:41;;;;;;;6.20;2.90;;;;;;;5.79;73.06;99306.55;434993;1273;142345;-61
2022/05/23 00:53:52;;;;;;;4.00;3.30;;;;;;;5.63;72.92;99306.29;437367;1272;141858;-62
2022/05/23 01:03:58;;;;;;;3.60;2.80;;;;;;;5.40;73.41;99311.73;443699;1272;142731;-61
2022/05/23 01:14:05;;;;;;;2.10;1.90;;;;;;;5.17;73.61;99313.64;446432;1273;141978;-61
2022/05/23 01:24:20;;;;;;;5.00;3.20;;;;;;;4.97;73.38;99318.70;447193;1271;141599;-61
2022/05/23 01:34:26;;;;;;;3.20;2.50;;;;;;;4.82;73.82;99317.46;447074;1272;142018;-61
2022/05/23 01:44:32;;;;;;;3.60;2.70;;;;;;;4.65;73.97;99312.66;435309;1273;141993;-60
2022/05/23 01:54:39;;;;;;;2.70;2.20;;;;;;;4.44;74.10;99310.28;447197;1272;151884;-61
2022/05/23 02:04:46;;;;;;;4.10;3.20;;;;;;;4.29;74.22;99311.45;446334;1272;145732;-62
2022/05/23 02:14:51;;;;;;;5.30;2.90;;;;;;;4.16;74.42;99304.86;436914;1272;140964;-59
2022/05/23 02:24:57;;;;;;;3.20;2.90;;;;;;;4.07;74.75;99304.73;438336;1273;142561;-59
2022/05/23 02:35:04;;;;;;;10.20;4.30;;;;;;;3.97;74.86;99308.08;433240;1272;146867;-60
2022/05/23 02:45:12;;;;;;;6.70;3.50;;;;;;;3.83;74.65;99293.73;434568;1273;141465;-61
2022/05/23 02:55:18;;;;;;;5.10;3.90;;;;;;;3.79;74.74;99282.81;436422;1272;141115;-59
2022/05/23 03:05:24;;;;;;;5.10;3.80;;;;;;;4.01;75.29;99278.96;440564;1273;201479;-61
2022/05/23 03:15:30;;;;;;;7.50;3.90;;;;;;;5.92;75.26;99271.88;443428;1272;146187;-60
2022/05/23 03:36:00;;;;;;;9.80;4.00;;;;;;;6.64;70.29;99271.77;437634;1273;141816;-61
2022/05/23 03:46:12;;;;;;;3.50;3.20;;;;;;;6.24;70.93;99273.96;446924;1272;143525;-61
2022/05/23 03:56:18;;;;;;;5.30;4.30;;;;;;;6.30;71.40;99270.04;433842;1273;141666;-61
2022/05/23 04:06:24;;;;;;;4.10;3.20;;;;;;;6.99;72.45;99276.92;431585;1272;142208;-62
2022/05/23 04:16:30;;;;;;;6.50;3.40;;;;;;;15.18;68.79;99259.80;432341;1273;141244;-60
2022/05/23 04:26:36;;;;;;;11.60;4.50;;;;;;;22.59;56.27;99259.66;438383;1272;197632;-58
2022/05/23 04:36:42;;;;;;;9.10;4.80;;;;;;;26.91;48.37;99260.63;438752;1272;141271;-61
2022/05/23 04:57:10;;;;;;;4.30;3.10;;;;;;;35.07;34.56;99271.83;444445;1272;141054;-55
2022/05/23 05:07:16;;;;;;;3.50;3.30;;;;;;;37.13;30.23;99276.69;443351;1272;141454;-55
2022/05/23 05:17:21;;;;;;;3.20;2.90;;;;;;;38.46;26.34;99266.66;440828;1272;141682;-55
2022/05/23 05:27:28;;;;;;;5.70;3.10;;;;;;;38.23;24.57;99253.27;445945;1272;142630;-56
2022/05/23 05:37:43;;;;;;;2.60;2.40;;;;;;;39.34;22.71;99248.60;447046;1272;141911;-56
2022/05/23 05:47:51;;;;;;;4.80;2.60;;;;;;;41.75;21.45;99250.67;445093;1273;141422;-56
2022/05/23 05:58:18;;;;;;;2.60;1.50;;;;;;;46.39;18.51;99255.23;440677;1272;145699;-56
2022/05/23 06:18:48;;;;;;;2.90;1.50;;;;;;;48.91;14.88;99263.96;447178;1271;142071;-58
2022/05/23 06:28:55;;;;;;;2.50;1.60;;;;;;;48.64;13.28;99272.27;444952;1273;141676;-55
2022/05/23 06:39:01;;;;;;;3.70;1.80;;;;;;;47.96;13.03;99286.77;444389;1273;141599;-56
2022/05/23 06:49:07;;;;;;;3.70;2.30;;;;;;;46.77;12.86;99288.87;433132;1272;186068;-54
2022/05/23 06:59:20;;;;;;;5.30;3.60;;;;;;;48.17;12.54;99297.45;445886;1271;141426;-55
2022/05/23 07:19:49;;;;;;;4.50;4.20;;;;;;;50.91;10.94;99282.20;430945;1273;141977;-57
2022/05/23 07:29:55;;;;;;;3.40;3.20;;;;;;;48.34;10.73;99269.16;431781;1273;141677;-58
2022/05/23 07:40:01;;;;;;;24.90;9.60;;;;;;;48.45;10.63;99268.60;432643;1271;141379;-57
2022/05/23 07:50:14;;;;;;;4.00;2.30;;;;;;;50.12;10.08;99267.25;431755;1273;143723;-57
2022/05/23 08:00:33;;;;;;;2.60;1.40;;;;;;;44.13;11.15;99257.21;430844;1273;143327;-56
2022/05/23 08:10:39;;;;;;;7.80;1.80;;;;;;;32.13;16.08;99256.16;431768;1273;140972;-57
2022/05/23 08:20:46;;;;;;;2.40;1.60;;;;;;;27.16;18.86;99262.61;434023;1273;140975;-55
2022/05/23 08:30:53;;;;;;;4.00;1.80;;;;;;;23.62;22.75;99269.21;430176;1271;141753;-52
2022/05/23 08:41:09;;;;;;;2.20;1.90;;;;;;;21.88;25.87;99268.31;432398;1273;147068;-56
2022/05/23 08:51:18;;;;;;;4.70;1.70;;;;;;;22.38;25.23;99262.89;432963;1273;142264;-53
2022/05/23 09:01:27;;;;;;;4.50;1.90;;;;;;;22.02;25.02;99238.31;430859;1273;140458;-54
2022/05/23 09:11:35;;;;;;;2.40;1.70;;;;;;;21.48;25.69;99233.84;431986;1273;141443;-59
2022/05/23 09:32:10;;;;;;;1.60;1.40;;;;;;;20.68;26.60;99219.08;432492;1273;127769;-50
2022/05/23 09:52:51;;;;;;;2.60;1.40;;;;;;;19.96;28.37;99210.23;432464;1272;141730;-54
2022/05/23 10:03:06;;;;;;;2.50;1.30;;;;;;;19.68;28.62;99204.38;432166;1273;145000;-53
2022/05/23 10:13:26;;;;;;;3.30;1.60;;;;;;;19.32;28.90;99199.38;432155;1273;146306;-56
2022/05/23 10:23:35;;;;;;;4.00;1.40;;;;;;;19.11;28.92;99190.13;430487;1272;144687;-56
2022/05/23 10:33:43;;;;;;;2.70;1.50;;;;;;;19.08;29.21;99187.50;430438;1273;141301;-53
2022/05/23 10:43:59;;;;;;;2.70;1.80;;;;;;;18.87;29.37;99187.92;432533;1271;141462;-51
2022/05/23 10:54:34;;;;;;;5.30;1.60;;;;;;;18.53;30.03;99176.47;432016;1271;141611;-54
2022/05/23 11:04:50;;;;;;;5.40;1.70;;;;;;;18.45;30.34;99165.98;430588;1273;144131;-54
2022/05/23 11:15:12;;;;;;;4.10;1.50;;;;;;;18.39;31.43;99163.05;431607;1273;141464;-54
2022/05/23 11:25:27;;;;;;;5.00;1.80;;;;;;;18.22;32.22;99152.65;433094;1273;141201;-53
2022/05/23 11:35:40;;;;;;;1.30;1.20;;;;;;;18.20;32.16;99148.59;446515;1272;141425;-54
2022/05/23 11:46:03;;;;;;;3.40;2.10;;;;;;;18.11;31.69;99147.32;447350;1271;185915;-54
2022/05/23 11:56:11;;;;;;;4.60;1.80;;;;;;;18.57;31.47;99138.92;435406;1273;141799;-53
2022/05/23 12:06:19;;;;;;;2.20;1.60;;;;;;;18.92;31.05;99124.38;447181;1272;142868;-47
2022/05/23 12:16:44;;;;;;;1.00;0.90;;;;;;;18.74;30.94;99114.02;446362;1273;142320;-54
2022/05/23 12:26:53;;;;;;;1.60;1.30;;;;;;;18.46;31.18;99113.11;433137;1273;145480;-47
2022/05/23 12:37:00;;;;;;;1.90;1.20;;;;;;;18.74;31.23;99101.65;447339;1273;141809;-52
2022/05/23 12:47:16;;;;;;;2.20;0.90;;;;;;;18.95;30.94;99085.49;439471;1273;141653;-53
2022/05/23 12:57:52;;;;;;;2.80;1.50;;;;;;;19.11;30.42;99076.54;444595;1273;141701;-50
2022/05/23 13:08:03;;;;;;;2.60;1.20;;;;;;;19.33;29.99;99062.19;435261;1273;143219;-50
2022/05/23 13:28:55;;;;;;;1.40;1.10;;;;;;;19.41;30.04;99037.75;441077;1273;145208;-55
2022/05/23 13:39:03;;;;;;;1.60;1.40;;;;;;;19.17;30.84;99027.61;433584;1271;194776;-65
2022/05/23 13:49:17;;;;;;;1.80;0.70;;;;;;;18.94;31.43;99017.96;433142;1273;145235;-54
2022/05/23 13:59:26;;;;;;;0.80;0.60;;;;;;;18.96;31.71;99011.08;429630;1273;141087;-52
2022/05/23 14:09:34;;;;;;;1.30;1.20;;;;;;;18.87;30.91;99008.48;430703;1273;142282;-53
2022/05/23 14:19:43;;;;;;;;;;;;;;;18.79;31.49;99003.48;443149;1273;151246;-50
2022/05/23 14:30:10;;;;;;;1.70;1.20;;;;;;;18.85;32.19;98997.96;446350;1273;128156;-54
2022/05/23 14:40:16;;;;;;;1.20;1.00;;;;;;;19.23;32.45;98990.38;444204;1273;141286;-52
2022/05/23 14:50:30;;;;;;;7.30;2.10;;;;;;;19.30;33.33;98982.34;445778;1273;142008;-52
2022/05/23 15:00:41;;;;;;;2.30;1.30;;;;;;;18.89;33.83;98977.23;446853;1272;142171;-53
2022/05/23 15:10:47;;;;;;;1.20;1.10;;;;;;;18.61;34.07;98973.80;440411;1273;298322;-50
2022/05/23 15:20:54;;;;;;;2.10;1.10;;;;;;;18.71;34.45;98971.65;440237;1274;142407;-52
2022/05/23 15:31:00;;;;;;;1.30;1.20;;;;;;;18.79;34.61;98968.55;443354;1272;142515;-53
2022/05/23 15:41:08;;;;;;;3.10;1.50;;;;;;;18.92;35.37;98965.86;445020;1274;142508;-54
2022/05/23 15:51:16;;;;;;;1.10;1.00;;;;;;;18.31;36.05;98961.79;446917;1272;141782;-52
2022/05/23 16:01:23;;;;;;;1.30;1.00;;;;;;;17.99;36.83;98958.02;446967;1273;142834;-57
2022/05/23 16:11:35;;;;;;;2.30;1.40;;;;;;;17.72;37.10;98945.27;437072;1273;146723;-58
2022/05/23 16:21:41;;;;;;;1.40;1.30;;;;;;;17.51;37.97;98940.48;447192;1272;144038;-57
2022/05/23 16:31:49;;;;;;;1.20;1.10;;;;;;;17.26;38.37;98941.45;432199;1273;142257;-57
2022/05/23 16:41:55;;;;;;;;;;;;;;;17.01;38.87;98938.48;446775;1273;143988;-57
2022/05/23 16:52:00;;;;;;;1.10;1.00;;;;;;;16.98;39.35;98937.64;443985;1272;128641;-57
2022/05/23 17:02:07;;;;;;;1.40;1.00;;;;;;;16.91;39.70;98928.65;432740;1273;142016;-58
2022/05/23 17:12:13;;;;;;;1.40;1.30;;;;;;;16.89;39.91;98927.41;445052;1273;142559;-58
2022/05/23 17:22:19;;;;;;;2.30;1.20;;;;;;;16.79;40.10;98935.63;437820;1272;141045;-56
2022/05/23 17:32:25;;;;;;;3.60;0.90;;;;;;;16.55;40.50;98926.52;431823;1273;144045;-57
2022/05/23 17:42:32;;;;;;;1.40;1.30;;;;;;;16.25;40.98;98919.06;434096;1272;141762;-58
2022/05/23 17:52:38;;;;;;;4.70;2.50;;;;;;;15.96;41.67;98912.38;436550;1273;142425;-57
2022/05/23 18:02:44;;;;;;;3.20;2.30;;;;;;;15.68;42.53;98905.60;433766;1273;142252;-57
2022/05/23 18:12:50;;;;;;;1.90;0.90;;;;;;;15.44;43.11;98902.98;439180;1273;141366;-56
2022/05/23 18:22:56;;;;;;;1.80;1.50;;;;;;;15.23;43.46;98899.16;441394;1273;140815;-53
2022/05/23 18:33:02;;;;;;;1.30;1.20;;;;;;;14.98;43.96;98896.30;442559;1272;142074;-54
2022/05/23 18:43:08;;;;;;;2.30;1.30;;;;;;;14.73;44.80;98893.21;439340;1274;142214;-62
2022/05/23 18:53:14;;;;;;;2.10;1.90;;;;;;;14.47;45.57;98897.80;432683;1273;143959;-55
2022/05/23 19:03:20;;;;;;;2.10;2.00;;;;;;;14.22;46.17;98898.12;432343;1273;141564;-57
2022/05/23 19:13:27;;;;;;;2.90;2.20;;;;;;;13.99;47.12;98906.00;433063;1273;142330;-51
2022/05/23 19:23:37;;;;;;;3.00;2.10;;;;;;;13.75;47.94;98904.87;429731;1272;141473;-53
2022/05/23 19:33:43;;;;;;;3.90;2.50;;;;;;;13.54;48.69;98910.42;440326;1272;198046;-50
2022/05/23 19:43:49;;;;;;;5.90;2.90;;;;;;;13.31;49.37;98908.65;428810;1273;143366;-57
2022/05/23 19:53:55;;;;;;;7.70;3.20;;;;;;;13.06;50.01;98913.23;429937;1273;142186;-56
2022/05/23 20:15:21;;;;;;;4.30;3.60;;;;;;;12.67;51.47;98911.99;434125;1273;141571;-57
2022/05/23 20:24:51;;;;;;;10.50;4.90;;;;;;;12.48;51.88;98919.66;431025;1273;142455;-56
2022/05/23 20:34:57;;;;;;;4.60;3.30;;;;;;;12.28;52.74;98918.13;429899;1273;146050;-56
2022/05/23 20:45:04;;;;;;;7.30;4.60;;;;;;;12.18;53.53;98911.23;430728;1272;146727;-49
2022/05/23 20:55:11;;;;;;;6.60;4.60;;;;;;;12.08;54.19;98918.32;430105;1273;140673;-57
2022/05/23 21:05:20;;;;;;;6.80;4.90;;;;;;;11.95;54.78;98931.24;429683;1271;141767;-57
2022/05/23 21:15:28;;;;;;;8.10;5.30;;;;;;;11.72;55.33;98923.09;430113;1273;141020;-59
2022/05/23 21:25:36;;;;;;;5.50;5.00;;;;;;;11.52;55.96;98911.45;431260;1271;141464;-57
2022/05/23 21:35:42;;;;;;;6.40;5.20;;;;;;;11.35;56.56;98913.84;441578;1271;141442;-59
2022/05/23 21:56:12;;;;;;;6.40;5.40;;;;;;;11.10;57.68;98912.29;440299;1271;144245;-58
2022/05/23 22:06:20;;;;;;;6.30;4.50;;;;;;;10.99;58.33;98914.89;439887;1272;141023;-57
2022/05/23 22:16:27;;;;;;;7.40;5.50;;;;;;;10.87;58.90;98901.40;444386;1273;142713;-51
2022/05/23 22:26:33;;;;;;;6.10;5.30;;;;;;;10.79;59.32;98891.31;436060;1270;142356;-55
2022/05/23 22:36:39;;;;;;;8.50;5.70;;;;;;;10.72;59.71;98889.61;434055;1273;143463;-51
2022/05/23 22:46:45;;;;;;;7.60;5.60;;;;;;;10.60;60.26;98886.61;439275;1273;142562;-53
2022/05/23 22:56:51;;;;;;;9.00;5.30;;;;;;;10.51;60.70;98890.64;436947;1273;143063;-51
2022/05/23 23:07:01;;;;;;;5.70;5.20;;;;;;;10.34;61.13;98878.88;446749;1271;143538;-54
2022/05/23 23:17:10;;;;;;;7.50;6.40;;;;;;;10.15;61.64;98869.09;432931;1273;141204;-53
2022/05/23 23:27:16;;;;;;;6.60;5.10;;;;;;;10.00;62.23;98861.61;429628;1273;142080;-52
2022/05/23 23:47:51;;;;;;;6.60;5.40;;;;;;;9.70;63.23;98863.41;447007;1272;144236;-55
2022/05/23 23:57:57;;;;;;;6.90;4.90;;;;;;;9.54;63.47;98861.41;445618;1273;141616;-53
